Strona główna
METAR-TAF:

METAR-TAF

Lotnisko :

Port lotniczy Caracas

Caracas, Wenezuela

Szerokość geograficzna: 10-36N, Długość geograficzna: 066-59W, wysokość: 43 m

Aktualna obserwacja pogody

Raport powstał 57 minut temu, godzina 17:03 UTC
Wiatr 6 kt od północno-północny wschód
Temperatura 30°C
Wilgotność 66%
Ciśnienie 1015 hPa

METAR: SVMI 251703Z AUTO 02006KT NCD 30/23 Q1015

czas: 14:00 (18:00 UTC)

Prognoza

Raport powstał 8 godziny i 0 minut temu, godzina 10:00 UTC
Prognoza ważna od 25 godzina 12 UTC do 26 godzina 12 UTC
Wiatr kt od północ
Widzialność 10 km lub więcej
Rozproszone chmury na wysokości 2000 ft
Stopniowe zmiany
od 25 godzina 14 UTC do 25 godzina 18 UTC
Wiatr 8 kt od wschód
Rozproszone chmury na wysokości 1600 ft
Przejściowo
od 25 godzina 19 UTC do 26 godzina 23 UTC
Wiatr 10 kt od wschód
Widzialność: 9000 m
Przerywane chmury na wysokości 1600 ft
mżawka,

TAF: SVMI 251000Z 2512/2612 00000KT 9999 SCT020 TX34/2518Z TN25/2607Z BECMG 2514/2518 09008KT SCT016 TEMPO 2519/2623 09010KT 9000 DZ BKN016

Obserwacja i prognoza pogody dla ponad 4000 lotnisk (raport METAR i TAF).

Dostępne stacje oznaczono żółtymi i czerwonymi punktami na mapie.

Najedź kursorem aby zobaczyć nazwę stacji.

Kliknij aby zobaczyć obserwacje i prognozy pogody.

Aby zmienić mapę: kliknij na zielony przycisk z czarnym krzyżykiem, aby powiększyć; na zielony przycisk z myślnikiem, aby pomniejszyć; na zielone strzałki, aby przejść do map sąsiednich.


METAR-TAF: